createdAt,value
2019-03-31T00:02:24.846Z,65.15
2019-03-31T00:04:57.486Z,65.28
2019-03-31T00:07:31.441Z,65.32
2019-03-31T00:10:03.863Z,65.25
2019-03-31T00:12:36.255Z,65.28
2019-03-31T00:15:08.655Z,65.50
2019-03-31T00:17:40.987Z,65.35
2019-03-31T00:20:13.232Z,65.64
2019-03-31T00:22:45.475Z,66.42
2019-03-31T00:25:17.720Z,66.02
2019-03-31T00:27:49.986Z,65.68
2019-03-31T00:30:22.251Z,65.28
2019-03-31T00:32:54.782Z,64.92
2019-03-31T00:35:27.027Z,64.94
2019-03-31T00:37:59.186Z,65.01
2019-03-31T00:40:31.454Z,64.89
2019-03-31T00:43:03.699Z,64.90
2019-03-31T00:45:35.904Z,64.85
2019-03-31T00:48:08.123Z,65.23
2019-03-31T00:50:40.356Z,65.26
2019-03-31T00:53:12.510Z,65.44
2019-03-31T00:55:44.750Z,65.93
2019-03-31T00:58:17.008Z,66.27
2019-03-31T01:01:06.436Z,66.59
2019-03-31T01:03:40.278Z,67.11
2019-03-31T01:06:12.574Z,66.81
2019-03-31T01:08:44.913Z,66.61
2019-03-31T01:11:19.872Z,66.65
2019-03-31T01:13:52.093Z,66.67
2019-03-31T01:16:24.373Z,66.78
2019-03-31T01:18:56.594Z,66.86
2019-03-31T01:21:28.987Z,66.87
2019-03-31T01:24:01.463Z,67.11
2019-03-31T01:26:33.749Z,67.08
2019-03-31T01:29:06.281Z,66.31
2019-03-31T01:31:49.720Z,66.16
2019-03-31T01:34:13.029Z,66.20
2019-03-31T01:36:45.253Z,66.03
2019-03-31T01:39:17.486Z,66.07
2019-03-31T01:41:49.720Z,65.96
2019-03-31T01:44:21.895Z,65.91
2019-03-31T01:46:54.109Z,66.25
2019-03-31T01:49:26.343Z,66.07
2019-03-31T01:51:58.625Z,66.49
2019-03-31T01:54:30.832Z,66.51
2019-03-31T01:57:02.994Z,66.48
2019-03-31T01:59:35.161Z,66.70
2019-03-31T02:02:09.021Z,66.76
2019-03-31T02:04:41.260Z,67.32
2019-03-31T02:07:13.745Z,67.25
2019-03-31T02:09:45.973Z,67.14
2019-03-31T02:12:19.374Z,67.34
2019-03-31T02:14:51.578Z,66.96
2019-03-31T02:17:23.810Z,67.26
2019-03-31T02:19:56.030Z,67.30
2019-03-31T02:22:28.503Z,66.79
2019-03-31T02:25:00.679Z,66.51
2019-03-31T02:27:32.883Z,66.56
2019-03-31T02:30:05.134Z,66.40
2019-03-31T02:32:37.445Z,66.43
2019-03-31T02:35:09.676Z,67.08
2019-03-31T02:37:41.839Z,67.15
2019-03-31T02:40:14.002Z,67.82
2019-03-31T02:42:46.238Z,68.20
2019-03-31T02:45:18.537Z,68.77
2019-03-31T02:47:50.683Z,68.43
2019-03-31T02:50:47.216Z,68.58
2019-03-31T02:53:20.078Z,68.81
2019-03-31T02:55:52.234Z,68.83
2019-03-31T02:58:24.839Z,69.29
2019-03-31T03:00:57.181Z,68.76
2019-03-31T03:03:29.342Z,68.27
2019-03-31T03:06:01.721Z,67.94
2019-03-31T03:08:33.928Z,68.45
2019-03-31T03:11:06.414Z,68.84
2019-03-31T03:13:38.647Z,68.72
2019-03-31T03:16:29.689Z,68.57
2019-03-31T03:19:01.825Z,68.77
2019-03-31T03:21:34.046Z,68.28
2019-03-31T03:24:06.256Z,67.76
2019-03-31T03:26:38.398Z,67.83
2019-03-31T03:29:10.556Z,67.88
2019-03-31T03:31:42.700Z,67.26
2019-03-31T03:34:14.902Z,67.12
2019-03-31T03:36:47.032Z,67.44
2019-03-31T03:39:19.176Z,67.38
2019-03-31T03:41:51.332Z,67.63
2019-03-31T03:44:23.479Z,67.63
2019-03-31T03:46:55.953Z,67.46
2019-03-31T03:49:28.427Z,67.76
2019-03-31T03:52:00.603Z,67.77
2019-03-31T03:54:32.828Z,67.71
2019-03-31T03:57:04.966Z,67.37
2019-03-31T03:59:37.200Z,67.86
2019-03-31T04:02:09.340Z,67.72
2019-03-31T04:04:41.543Z,68.14
2019-03-31T04:07:13.673Z,67.49
2019-03-31T04:09:45.810Z,67.78
2019-03-31T04:12:17.947Z,67.11
2019-03-31T04:14:50.101Z,66.58
2019-03-31T04:17:22.269Z,66.95
2019-03-31T04:19:54.848Z,66.97
2019-03-31T04:22:27.089Z,67.34
2019-03-31T04:24:59.227Z,68.07
2019-03-31T04:27:31.499Z,67.54
2019-03-31T04:30:03.633Z,67.36
2019-03-31T04:32:38.746Z,66.74
2019-03-31T04:35:09.768Z,67.65
2019-03-31T04:37:41.898Z,66.31
2019-03-31T04:40:14.055Z,66.94
2019-03-31T04:42:46.183Z,66.21
2019-03-31T04:45:18.413Z,66.33
2019-03-31T04:47:50.579Z,66.20
2019-03-31T04:50:23.354Z,66.04
2019-03-31T04:52:56.787Z,66.38
2019-03-31T04:55:29.111Z,66.67
2019-03-31T04:58:01.496Z,66.56
2019-03-31T05:00:33.762Z,66.66
2019-03-31T05:03:05.981Z,66.79
2019-03-31T05:05:38.128Z,66.69
2019-03-31T05:08:10.345Z,66.71
2019-03-31T05:10:42.575Z,66.38
2019-03-31T05:13:14.731Z,66.02
2019-03-31T05:15:46.858Z,66.28
2019-03-31T05:18:19.085Z,66.01
2019-03-31T05:20:51.225Z,65.47
2019-03-31T05:23:23.374Z,65.76
2019-03-31T05:25:55.659Z,65.97
2019-03-31T05:28:27.832Z,65.84
2019-03-31T05:30:59.985Z,65.93
2019-03-31T05:33:32.227Z,65.73
2019-03-31T05:36:04.392Z,65.68
2019-03-31T05:38:36.536Z,65.90
2019-03-31T05:41:08.668Z,65.81
2019-03-31T05:43:40.824Z,65.89
2019-03-31T05:46:12.961Z,65.59
2019-03-31T05:48:45.114Z,65.64
2019-03-31T05:51:17.365Z,65.25
2019-03-31T05:53:49.526Z,65.30
2019-03-31T05:56:21.673Z,65.43
2019-03-31T05:58:54.858Z,65.04
2019-03-31T06:01:27.000Z,65.30
2019-03-31T06:03:59.163Z,65.61
2019-03-31T06:06:31.499Z,64.80
2019-03-31T06:09:05.387Z,64.67
2019-03-31T06:11:37.541Z,64.23
2019-03-31T06:14:09.683Z,64.03
2019-03-31T06:16:41.852Z,64.51
2019-03-31T06:19:15.007Z,64.60
2019-03-31T06:21:47.166Z,64.86
2019-03-31T06:24:19.393Z,64.48
2019-03-31T06:26:51.532Z,64.64
2019-03-31T06:29:23.686Z,64.36
2019-03-31T06:31:56.110Z,64.59
2019-03-31T06:34:28.537Z,63.85
2019-03-31T06:37:00.728Z,64.13
2019-03-31T06:39:34.336Z,63.72
2019-03-31T06:42:06.686Z,63.63
2019-03-31T06:44:39.975Z,63.60
2019-03-31T06:47:12.227Z,63.00
2019-03-31T06:49:44.381Z,63.26
2019-03-31T06:52:16.698Z,62.18
2019-03-31T06:54:48.928Z,62.27
2019-03-31T06:57:21.080Z,61.53
2019-03-31T06:59:53.327Z,61.86
2019-03-31T07:02:26.060Z,62.06
2019-03-31T07:05:01.369Z,61.98
2019-03-31T07:07:32.585Z,61.46
2019-03-31T07:10:05.312Z,61.92
2019-03-31T07:12:37.906Z,62.21
2019-03-31T07:15:11.133Z,61.80
2019-03-31T07:17:43.345Z,61.69
2019-03-31T07:20:15.498Z,61.42
2019-03-31T07:22:47.738Z,61.28
2019-03-31T07:25:19.905Z,62.10
2019-03-31T07:27:52.065Z,62.12
2019-03-31T07:30:28.759Z,61.96
2019-03-31T07:33:01.800Z,62.10
2019-03-31T07:35:34.285Z,62.36
2019-03-31T07:38:06.830Z,61.48
2019-03-31T07:40:39.090Z,61.76
2019-03-31T07:43:11.301Z,62.51
2019-03-31T07:45:44.671Z,61.77
2019-03-31T07:48:16.931Z,61.42
2019-03-31T07:50:49.085Z,61.57
2019-03-31T07:53:21.299Z,60.94
2019-03-31T07:55:54.014Z,60.69
2019-03-31T07:58:27.089Z,61.10
2019-03-31T08:00:59.791Z,60.98
2019-03-31T08:03:32.873Z,60.48
2019-03-31T08:06:05.507Z,60.36
2019-03-31T08:08:37.733Z,58.40
2019-03-31T08:11:10.498Z,56.39
2019-03-31T08:13:42.982Z,56.99
2019-03-31T08:16:15.259Z,57.28
2019-03-31T08:18:47.441Z,57.00
2019-03-31T08:21:19.785Z,57.07
2019-03-31T08:23:52.047Z,57.43
2019-03-31T08:26:24.344Z,57.29
2019-03-31T08:28:58.579Z,57.39
2019-03-31T08:31:30.843Z,56.59
2019-03-31T08:34:03.089Z,56.44
2019-03-31T08:36:35.530Z,57.72
2019-03-31T08:39:09.155Z,56.70
2019-03-31T08:41:41.314Z,56.43
2019-03-31T08:44:13.518Z,56.36
2019-03-31T08:46:45.747Z,56.74
2019-03-31T08:49:17.902Z,55.94
2019-03-31T08:51:50.148Z,56.08
2019-03-31T08:54:22.309Z,56.75
2019-03-31T08:56:54.480Z,56.16
2019-03-31T08:59:26.626Z,56.34
2019-03-31T09:01:58.935Z,57.08
2019-03-31T09:04:31.169Z,56.43
2019-03-31T09:07:03.309Z,55.12
2019-03-31T09:09:35.528Z,56.07
2019-03-31T09:12:07.744Z,56.16
2019-03-31T09:14:39.910Z,56.67
2019-03-31T09:17:12.145Z,56.43
2019-03-31T09:19:45.275Z,56.64
2019-03-31T09:22:17.514Z,57.10
2019-03-31T09:24:49.669Z,57.10
2019-03-31T09:27:21.908Z,58.04
2019-03-31T09:29:54.627Z,57.30
2019-03-31T09:32:26.793Z,58.09
2019-03-31T09:34:59.261Z,57.36
2019-03-31T09:37:31.730Z,57.14
2019-03-31T09:40:04.617Z,58.04
2019-03-31T09:42:36.949Z,56.71
2019-03-31T09:45:10.012Z,56.99
2019-03-31T09:47:43.969Z,57.58
2019-03-31T09:50:17.501Z,56.97
2019-03-31T09:52:50.504Z,56.94
2019-03-31T09:55:23.416Z,56.00
2019-03-31T09:57:56.488Z,55.41
2019-03-31T10:00:51.139Z,54.79
2019-03-31T10:03:23.423Z,54.20
2019-03-31T10:06:10.012Z,53.62
2019-03-31T10:08:31.022Z,53.04
2019-03-31T10:11:03.247Z,53.49
2019-03-31T10:13:36.190Z,53.43
2019-03-31T10:16:08.636Z,54.32
2019-03-31T10:18:40.830Z,53.22
2019-03-31T10:21:14.296Z,52.66
2019-03-31T10:23:46.703Z,51.38
2019-03-31T10:26:31.167Z,50.41
2019-03-31T10:28:55.329Z,48.92
2019-03-31T10:31:27.733Z,50.20
2019-03-31T10:33:59.958Z,49.88
2019-03-31T10:36:43.798Z,50.70
2019-03-31T10:39:08.417Z,51.71
2019-03-31T10:41:40.827Z,51.90
2019-03-31T10:44:14.314Z,50.64
2019-03-31T10:46:47.286Z,50.43
2019-03-31T10:49:23.020Z,50.84
2019-03-31T10:51:55.819Z,50.52
2019-03-31T10:54:28.783Z,50.38
2019-03-31T10:57:01.474Z,49.46
2019-03-31T10:59:33.757Z,49.69
2019-03-31T11:02:05.964Z,48.83
2019-03-31T11:04:39.272Z,49.16
2019-03-31T11:07:13.071Z,49.74
2019-03-31T11:09:50.413Z,49.64
2019-03-31T11:12:23.877Z,50.50
2019-03-31T11:14:57.417Z,50.65
2019-03-31T11:17:32.064Z,50.38
2019-03-31T11:20:08.927Z,49.54
2019-03-31T11:22:51.846Z,49.34
2019-03-31T11:25:28.941Z,49.73
2019-03-31T11:28:00.118Z,50.01
2019-03-31T11:30:33.447Z,49.43
2019-03-31T11:33:07.693Z,49.09
2019-03-31T11:35:41.512Z,48.85
2019-03-31T11:38:14.004Z,49.07
2019-03-31T11:40:46.231Z,49.06
2019-03-31T11:43:18.461Z,49.25
2019-03-31T11:45:51.093Z,49.41
2019-03-31T11:48:23.588Z,49.48
2019-03-31T11:50:56.342Z,50.12
2019-03-31T11:53:28.913Z,49.64
2019-03-31T11:56:05.918Z,49.59
2019-03-31T11:58:38.486Z,50.06
2019-03-31T12:01:10.737Z,49.79
2019-03-31T12:03:43.305Z,50.66
2019-03-31T12:06:16.349Z,49.79
2019-03-31T12:08:49.347Z,49.65
2019-03-31T12:11:21.917Z,48.96
2019-03-31T12:13:56.838Z,49.14
2019-03-31T12:16:29.017Z,48.49
2019-03-31T12:19:01.353Z,47.89
2019-03-31T12:21:33.607Z,48.43
2019-03-31T12:24:05.943Z,48.57
2019-03-31T12:26:38.118Z,48.86
2019-03-31T12:29:10.346Z,47.82
2019-03-31T12:31:42.516Z,47.73
2019-03-31T12:34:14.655Z,47.00
2019-03-31T12:36:46.955Z,47.69
2019-03-31T12:39:19.107Z,46.77
2019-03-31T12:41:51.307Z,47.09
2019-03-31T12:44:25.064Z,46.19
2019-03-31T12:46:57.804Z,45.75
2019-03-31T12:49:30.992Z,47.40
2019-03-31T12:52:03.147Z,48.00
2019-03-31T12:54:35.309Z,49.40
2019-03-31T12:57:07.518Z,48.83
2019-03-31T12:59:40.040Z,49.19
2019-03-31T13:02:12.210Z,49.34
2019-03-31T13:04:44.505Z,49.03
2019-03-31T13:07:16.668Z,49.46
2019-03-31T13:09:48.822Z,49.34
2019-03-31T13:12:21.131Z,49.62
2019-03-31T13:14:53.266Z,49.03
2019-03-31T13:17:25.427Z,47.50
2019-03-31T13:19:57.805Z,47.43
2019-03-31T13:22:30.412Z,46.76
2019-03-31T13:25:02.996Z,45.50
2019-03-31T13:27:35.197Z,46.84
2019-03-31T13:30:07.535Z,46.63
2019-03-31T13:32:39.794Z,45.99
2019-03-31T13:35:12.009Z,45.71
2019-03-31T13:37:44.183Z,46.32
2019-03-31T13:40:16.345Z,46.42
2019-03-31T13:42:48.554Z,46.56
2019-03-31T13:45:20.770Z,46.37
2019-03-31T13:47:53.000Z,46.93
2019-03-31T13:50:25.160Z,47.22
2019-03-31T13:52:57.484Z,47.73
2019-03-31T13:55:29.808Z,47.64
2019-03-31T13:58:03.347Z,47.22
2019-03-31T14:00:37.488Z,47.72
2019-03-31T14:03:10.715Z,47.71
2019-03-31T14:05:44.056Z,48.09
2019-03-31T14:08:25.514Z,47.11
2019-03-31T14:10:50.045Z,46.37
2019-03-31T14:13:22.681Z,47.00
2019-03-31T14:15:54.844Z,47.34
2019-03-31T14:18:27.250Z,47.18
2019-03-31T14:20:59.384Z,47.50
2019-03-31T14:23:31.639Z,48.38
2019-03-31T14:26:03.890Z,47.04
2019-03-31T14:28:36.039Z,47.45
2019-03-31T14:31:08.205Z,47.21
2019-03-31T14:33:40.359Z,46.77
2019-03-31T14:36:12.500Z,46.42
2019-03-31T14:38:44.710Z,45.89
2019-03-31T14:41:17.848Z,45.97
2019-03-31T14:43:50.283Z,45.63
2019-03-31T14:46:22.607Z,44.57
2019-03-31T14:48:54.842Z,44.30
2019-03-31T14:51:27.261Z,44.43
2019-03-31T14:53:59.496Z,40.47
2019-03-31T14:56:31.736Z,41.29
2019-03-31T14:59:04.034Z,40.84
2019-03-31T15:01:37.259Z,41.21
2019-03-31T15:04:09.398Z,40.12
2019-03-31T15:06:41.614Z,39.83
2019-03-31T15:09:13.764Z,39.33
2019-03-31T15:11:45.899Z,39.46
2019-03-31T15:14:18.128Z,38.51
2019-03-31T15:16:50.362Z,38.63
2019-03-31T15:19:22.515Z,38.52
2019-03-31T15:21:54.668Z,39.11
2019-03-31T15:24:27.263Z,38.82
2019-03-31T15:26:59.421Z,38.28
2019-03-31T15:29:31.835Z,39.01
2019-03-31T15:32:03.997Z,38.33
2019-03-31T15:34:36.232Z,38.34
2019-03-31T15:37:08.369Z,36.34
2019-03-31T15:39:40.533Z,34.64
2019-03-31T15:42:12.772Z,33.12
2019-03-31T15:44:45.001Z,31.72
2019-03-31T15:47:18.298Z,30.36
2019-03-31T15:49:50.444Z,30.05
2019-03-31T15:52:22.752Z,32.54
2019-03-31T15:54:55.388Z,31.83
2019-03-31T15:57:27.748Z,32.05
2019-03-31T15:59:59.897Z,31.12
2019-03-31T16:02:32.150Z,29.78
2019-03-31T16:05:04.542Z,29.36
2019-03-31T16:07:36.763Z,28.37
2019-03-31T16:10:08.447Z,27.79
2019-03-31T16:12:40.229Z,25.49
2019-03-31T16:15:11.920Z,24.25
2019-03-31T16:17:43.531Z,24.11
2019-03-31T16:20:15.196Z,23.18
2019-03-31T16:22:46.879Z,23.11
2019-03-31T16:25:30.204Z,23.68
2019-03-31T16:28:01.807Z,23.62
2019-03-31T16:30:34.258Z,23.75
2019-03-31T16:33:07.270Z,23.83
2019-03-31T16:35:39.113Z,24.21
2019-03-31T16:38:10.703Z,25.24
2019-03-31T16:40:42.366Z,25.00
2019-03-31T16:43:13.982Z,25.22
2019-03-31T16:45:46.112Z,26.65
2019-03-31T16:48:17.768Z,28.97
2019-03-31T16:50:49.444Z,29.42
2019-03-31T16:53:21.141Z,30.99
2019-03-31T16:55:52.727Z,31.66
2019-03-31T16:58:24.388Z,31.63
2019-03-31T17:00:55.979Z,31.84
2019-03-31T17:03:27.602Z,32.28
2019-03-31T17:05:59.395Z,33.30
2019-03-31T17:08:31.105Z,33.51
2019-03-31T17:11:05.615Z,32.94
2019-03-31T17:13:37.675Z,32.86
2019-03-31T17:16:09.364Z,33.78
2019-03-31T17:18:41.052Z,33.17
2019-03-31T17:21:12.790Z,33.44
2019-03-31T17:23:44.627Z,33.26
2019-03-31T17:26:16.349Z,34.18
2019-03-31T17:28:48.474Z,34.59
2019-03-31T17:31:20.107Z,34.13
2019-03-31T17:33:51.717Z,34.32
2019-03-31T17:36:24.298Z,34.39
2019-03-31T17:38:55.913Z,34.63
2019-03-31T17:41:27.560Z,34.74
2019-03-31T17:43:59.319Z,34.50
2019-03-31T17:46:31.097Z,34.64
2019-03-31T17:49:02.700Z,34.96
2019-03-31T17:51:34.309Z,35.18
2019-03-31T17:54:06.484Z,35.61
2019-03-31T17:56:38.288Z,35.47
2019-03-31T17:59:09.976Z,35.18
2019-03-31T18:01:41.643Z,35.27
2019-03-31T18:04:13.263Z,35.10
2019-03-31T18:06:44.956Z,35.65
2019-03-31T18:09:16.729Z,35.59
2019-03-31T18:11:49.777Z,35.25
2019-03-31T18:14:21.437Z,34.44
2019-03-31T18:16:53.044Z,33.54
2019-03-31T18:19:24.779Z,33.31
2019-03-31T18:21:56.640Z,33.03
2019-03-31T18:24:28.375Z,33.11
2019-03-31T18:27:00.271Z,32.74
2019-03-31T18:29:31.969Z,32.69
2019-03-31T18:32:03.649Z,33.01
2019-03-31T18:34:35.336Z,32.96
2019-03-31T18:37:07.020Z,32.78
2019-03-31T18:39:38.703Z,33.23
2019-03-31T18:42:10.308Z,33.16
2019-03-31T18:44:41.962Z,32.73
2019-03-31T18:47:13.748Z,32.90
2019-03-31T18:49:45.755Z,33.36
2019-03-31T18:52:17.364Z,33.54
2019-03-31T18:55:01.713Z,33.85
2019-03-31T18:57:48.751Z,33.97
2019-03-31T19:00:37.811Z,33.70
2019-03-31T19:03:28.390Z,34.14
2019-03-31T19:06:27.726Z,34.17
2019-03-31T19:09:27.462Z,34.56
2019-03-31T19:12:16.552Z,34.84
2019-03-31T19:15:14.512Z,35.16
2019-03-31T19:18:11.461Z,35.22
2019-03-31T19:21:11.491Z,35.04
2019-03-31T19:23:52.448Z,35.42
2019-03-31T19:26:52.172Z,35.84
2019-03-31T19:29:51.972Z,36.74
2019-03-31T19:32:48.644Z,36.47
2019-03-31T19:35:39.216Z,36.12
2019-03-31T19:38:32.595Z,36.41
2019-03-31T19:41:12.013Z,36.99
2019-03-31T19:44:05.118Z,37.56
2019-03-31T19:46:55.625Z,37.95
2019-03-31T19:49:50.502Z,38.36
2019-03-31T19:52:39.419Z,38.15
2019-03-31T19:55:32.187Z,38.68
2019-03-31T19:58:22.842Z,38.92
2019-03-31T20:01:12.027Z,38.43
2019-03-31T20:04:01.695Z,38.94
2019-03-31T20:06:41.011Z,39.46
2019-03-31T20:09:37.394Z,39.58
2019-03-31T20:12:31.690Z,39.47
2019-03-31T20:15:20.635Z,40.09
2019-03-31T20:18:17.060Z,40.63
2019-03-31T20:21:07.224Z,40.39
2019-03-31T20:24:07.005Z,41.16
2019-03-31T20:26:55.862Z,40.68
2019-03-31T20:29:40.698Z,41.51
2019-03-31T20:32:32.667Z,41.13
2019-03-31T20:35:26.286Z,41.15
2019-03-31T20:38:16.282Z,42.51
2019-03-31T20:40:55.399Z,41.87
2019-03-31T20:43:48.746Z,42.32
2019-03-31T20:46:20.499Z,42.73
2019-03-31T20:48:52.624Z,42.32
2019-03-31T20:51:24.313Z,42.45
2019-03-31T20:53:56.654Z,43.36
2019-03-31T20:56:29.072Z,42.85
2019-03-31T20:59:01.768Z,42.79
2019-03-31T21:01:33.546Z,43.01
2019-03-31T21:04:12.973Z,43.08
2019-03-31T21:06:46.883Z,43.41
2019-03-31T21:09:18.491Z,44.33
2019-03-31T21:11:51.519Z,44.62
2019-03-31T21:14:23.595Z,43.67
2019-03-31T21:16:55.293Z,44.33
2019-03-31T21:19:27.228Z,44.46
2019-03-31T21:21:58.868Z,44.38
2019-03-31T21:24:30.538Z,45.44
2019-03-31T21:27:02.125Z,45.67
2019-03-31T21:29:33.705Z,44.80
2019-03-31T21:32:05.405Z,44.96
2019-03-31T21:34:37.012Z,45.44
2019-03-31T21:37:08.615Z,45.80
2019-03-31T21:39:40.207Z,45.03
2019-03-31T21:42:11.875Z,45.74
2019-03-31T21:44:43.566Z,45.54
2019-03-31T21:47:15.161Z,45.88
2019-03-31T21:49:47.674Z,45.57
2019-03-31T21:52:19.343Z,45.78
2019-03-31T21:54:50.947Z,45.79
2019-03-31T21:57:22.611Z,46.09
2019-03-31T21:59:54.197Z,46.62
2019-03-31T22:02:25.779Z,46.40
2019-03-31T22:04:57.622Z,46.99
2019-03-31T22:07:29.397Z,46.05
2019-03-31T22:10:01.214Z,47.38
2019-03-31T22:12:33.155Z,47.05
2019-03-31T22:15:05.158Z,47.76
2019-03-31T22:17:36.822Z,47.26
2019-03-31T22:20:08.540Z,47.15
2019-03-31T22:22:40.346Z,47.30
2019-03-31T22:25:12.033Z,47.94
2019-03-31T22:27:43.692Z,48.05
2019-03-31T22:30:15.382Z,48.40
2019-03-31T22:32:47.090Z,47.43
2019-03-31T22:35:18.756Z,48.80
2019-03-31T22:37:50.447Z,49.19
2019-03-31T22:40:22.254Z,49.55
2019-03-31T22:42:53.922Z,49.43
2019-03-31T22:45:25.605Z,49.35
2019-03-31T22:47:57.517Z,50.41
2019-03-31T22:50:29.184Z,50.72
2019-03-31T22:53:00.898Z,51.73
2019-03-31T22:55:32.491Z,51.42
2019-03-31T22:58:04.268Z,52.21
2019-03-31T23:00:35.877Z,52.11
2019-03-31T23:03:09.145Z,51.91
2019-03-31T23:05:40.844Z,52.44
2019-03-31T23:08:12.512Z,52.33
2019-03-31T23:10:44.172Z,52.03
2019-03-31T23:13:15.814Z,52.05
2019-03-31T23:15:47.413Z,53.43
2019-03-31T23:18:19.096Z,53.38
2019-03-31T23:20:50.862Z,53.58
2019-03-31T23:23:22.506Z,53.49
2019-03-31T23:25:54.134Z,54.35
2019-03-31T23:28:25.726Z,54.29
2019-03-31T23:30:57.560Z,54.80
2019-03-31T23:33:29.223Z,54.51
2019-03-31T23:36:00.889Z,55.23
2019-03-31T23:38:32.766Z,55.08
2019-03-31T23:41:04.448Z,55.23
2019-03-31T23:43:36.144Z,55.12
2019-03-31T23:46:07.754Z,54.68
2019-03-31T23:48:39.347Z,55.00
2019-03-31T23:51:10.953Z,56.06
2019-03-31T23:53:42.551Z,56.26
2019-03-31T23:56:14.236Z,56.08
2019-03-31T23:58:46.806Z,56.80
